Terminal Aerodrome Forecast
Issued by NWS

Home | Current Version | Previous Version | Text Only | Print | Product List | Glossary On
Versions: 1 2 3 4 5 6 7 8 9 10 11 12 13 14 15 16 17 18 19 20 21 22 23 24 25 26 27
000
FTPA31 PHFO 211100
TAFOGG
TAF
PHOG 211125Z 2112/2212 13005KT P6SM FEW030 SCT050
     FM212100 02009KT P6SM FEW035 SCT050
     FM220400 VRB04KT P6SM SCT030 BKN060
      AMD LTD TO WX VIS AND WIND TIL 211600=

USA.gov is the U.S. government's official web portal to all federal, state and local government web resources and services.